메인 페이지
METAR-TAF:

METAR-TAF

공항 :

솔트레이크시티, 유타, 미국

솔트레이크시티 국제공항

위도: 40-46-41N, 경도: 111-58-10W, 고도: 1288m

현재 날씨관측

예보는 43분 전, 04:17시(UTC)에 발표되었습니다.
서북서7kt
온도 2°C
습도 93%
기압 1015 hPa
시정: 1.6km
고도 500ft 상공 구름 많음
고도 1300ft 상공 흐림
약한눈, 박무

METAR: KSLC 200417Z 30007KT 1SM R16L/P6000FT -SN BR BKN005 OVC013 02/01 A2996 RMK AO2 SFC VIS 1 1/2 P0002 T00170006

시각: 22:00 (05:00 UTC)

예보

예보는 1 시간 57분 전, 03:03시(UTC)에 발표되었습니다.
예보 대상 시간: 20일 03시부터 21일 06시까지 (UTC)
북북서10kt
시정: 1.6km
고도 600ft 상공 구름 많음
고도 1500ft 상공 흐림
약한눈
20일 0500시부터 (UTC)
북북서7kt
시정: 3.2km
고도 400ft 상공 구름 보통
고도 1200ft 상공 구름 많음
약한눈, 박무
20일 1300시부터 (UTC)
북북서5kt
시정: 9.7km
고도 1200ft 상공 구름 보통
고도 2500ft 상공 구름 많음
약한소낙눈, 박무
20일 1500시부터 (UTC)
북서10kt
시정: 9.7km
고도 2000ft 상공 구름 많음
고도 4000ft 상공 흐림
약한눈
20일 2000시부터 (UTC)
북서10kt
시정: 10km
고도 4000ft 상공 구름 많음
고도 6000ft 상공 흐림
약한소낙눈

TAF: KSLC 200303Z 2003/2106 33010KT 1SM -SN BKN006 OVC015 FM200500 34007KT 2SM -SN BR SCT004 BKN012 FM201300 34005KT 6SM -SHSN BR SCT012 BKN025 FM201500 32010KT 6SM -SN BKN020 OVC040 FM202000 32010KT P6SM -SHSN BKN040 OVC060

4,000개 이상의 공항 관측 자료 및 예보 (METAR 및 TAF 보고).

지도상에서 검색 가능한 기상관측소가 노란 점과 빨간 점으로 표시되어 있습니다.

기상관측소 명을 보려면 표시 위로 마우스를 이동하세요.

날씨 관측과 예보를 보려면 클릭하세요.

지도 변경 : 확대하려면 엑스 표시가 있는 녹색 버튼, 축소하려면 빼기 표시가 있는 녹색 버튼, 다음 페이지의 지도를 보려면 녹색 화살표를 클릭하세요.


METAR-TAF: